Time;durP1;ratioP1;P1;durP2;ratioP2;P2;SDS_P1;SDS_P2;PMS_P1;PMS_P2;Temp;Humidity;BMP_temperature;BMP_pressure;BME280_temperature;BME280_humidity;BME280_pressure;Samples;Min_cycle;Max_cycle;Signal;HPM_P1;HPM_P2
2023/07/01 00:01:44;;;;;;;41.10;31.67;;;;;;;28.52;100.00;97555.63;5065406;28;20140;-68
2023/07/01 00:04:14;;;;;;;36.20;29.30;;;;;;;28.51;100.00;97553.22;5063663;28;20636;-68
2023/07/01 00:06:44;;;;;;;38.22;29.40;;;;;;;28.52;100.00;97552.09;5047698;28;20169;-68
2023/07/01 00:09:13;;;;;;;40.15;31.15;;;;;;;28.51;100.00;97559.47;5065444;28;20725;-68
2023/07/01 00:11:43;;;;;;;34.95;29.25;;;;;;;28.52;100.00;97560.25;5046525;28;20076;-68
2023/07/01 00:14:12;;;;;;;40.10;32.10;;;;;;;28.51;100.00;97569.56;5047907;28;20159;-67
2023/07/01 00:16:41;;;;;;;38.78;30.42;;;;;;;28.50;100.00;97555.16;5066254;28;20563;-68
2023/07/01 00:19:11;;;;;;;39.92;30.60;;;;;;;28.50;100.00;97557.09;5047524;28;20056;-68
2023/07/01 00:21:41;;;;;;;38.50;30.70;;;;;;;28.50;100.00;97546.19;5044043;28;20060;-68
2023/07/01 00:24:10;;;;;;;36.13;29.35;;;;;;;28.49;100.00;97545.41;5064684;28;20050;-68
2023/07/01 00:26:40;;;;;;;37.33;29.70;;;;;;;28.50;100.00;97555.16;5047519;28;20052;-68
2023/07/01 00:29:09;;;;;;;36.28;29.63;;;;;;;28.50;100.00;97551.66;5045792;28;20464;-68
2023/07/01 00:31:39;;;;;;;34.38;28.42;;;;;;;28.53;100.00;97553.69;5048667;28;20103;-68
2023/07/01 00:34:08;;;;;;;33.45;27.05;;;;;;;28.52;100.00;97547.44;5051043;28;20033;-68
2023/07/01 00:36:38;;;;;;;33.85;28.63;;;;;;;28.56;100.00;97555.72;5039459;28;20048;-68
2023/07/01 00:39:07;;;;;;;36.10;29.13;;;;;;;28.57;100.00;97560.06;5068608;28;20037;-68
2023/07/01 00:41:37;;;;;;;33.67;26.83;;;;;;;28.58;100.00;97557.00;5051626;28;20044;-68
2023/07/01 00:44:07;;;;;;;33.70;27.73;;;;;;;28.60;100.00;97551.19;5050181;28;20058;-68
2023/07/01 00:46:36;;;;;;;34.67;28.33;;;;;;;28.63;100.00;97557.91;5066559;28;20052;-69
2023/07/01 00:49:06;;;;;;;34.78;28.50;;;;;;;28.63;100.00;97552.47;5047454;28;20049;-68
2023/07/01 00:51:35;;;;;;;32.72;28.40;;;;;;;28.65;100.00;97555.63;5051392;28;20420;-68
2023/07/01 00:54:05;;;;;;;31.67;27.48;;;;;;;28.66;100.00;97558.03;5065659;28;20044;-68
2023/07/01 00:56:34;;;;;;;34.58;28.75;;;;;;;28.69;100.00;97570.16;5051372;28;20067;-68
2023/07/01 00:59:04;;;;;;;37.90;29.55;;;;;;;28.72;100.00;97561.38;5050304;28;20040;-68
2023/07/01 01:01:37;;;;;;;34.90;28.90;;;;;;;28.74;100.00;97556.38;5051065;28;20060;-68
2023/07/01 01:04:34;;;;;;;34.72;28.05;;;;;;;28.75;100.00;97547.84;5067811;28;20048;-68
2023/07/01 01:07:24;;;;;;;33.85;27.70;;;;;;;28.77;100.00;97545.56;5049339;28;20048;-67
2023/07/01 01:10:02;;;;;;;32.17;26.50;;;;;;;28.81;100.00;97551.16;5048660;28;20149;-68
2023/07/01 01:12:33;;;;;;;35.92;27.98;;;;;;;28.84;100.00;97542.31;5047501;28;20532;-68
2023/07/01 01:15:04;;;;;;;34.20;27.45;;;;;;;28.87;100.00;97552.50;5049843;28;20037;-68
2023/07/01 01:17:37;;;;;;;36.08;28.95;;;;;;;28.86;100.00;97550.91;5047071;28;20048;-69
2023/07/01 01:20:13;;;;;;;34.20;28.23;;;;;;;28.90;100.00;97549.91;5050079;28;20549;-69
2023/07/01 01:23:00;;;;;;;37.45;29.00;;;;;;;28.95;100.00;97557.06;5058849;28;20072;-68
2023/07/01 01:25:55;;;;;;;31.02;26.67;;;;;;;29.00;100.00;97551.38;5039125;28;20052;-67
2023/07/01 01:28:25;;;;;;;34.03;27.85;;;;;;;29.02;100.00;97566.28;5048635;28;20041;-67
2023/07/01 01:30:54;;;;;;;31.45;27.02;;;;;;;29.08;100.00;97560.63;5023126;28;20080;-67
2023/07/01 01:33:24;;;;;;;35.85;28.35;;;;;;;29.11;100.00;97568.91;5058793;28;20048;-67
2023/07/01 01:36:01;;;;;;;33.08;28.60;;;;;;;29.16;100.00;97570.59;5034261;28;20088;-66
2023/07/01 01:38:35;;;;;;;34.55;27.85;;;;;;;29.20;100.00;97568.78;5026540;28;20145;-67
2023/07/01 01:41:11;;;;;;;32.90;26.70;;;;;;;29.27;100.00;97566.28;5017044;28;20134;-67
2023/07/01 01:43:58;;;;;;;32.85;27.25;;;;;;;29.37;100.00;97563.94;5040468;28;20076;-68
2023/07/01 01:46:29;;;;;;;33.10;28.60;;;;;;;29.52;100.00;97569.81;5025356;28;20045;-68
2023/07/01 01:49:03;;;;;;;31.50;26.38;;;;;;;29.64;100.00;97573.31;5019083;28;20045;-68
2023/07/01 01:51:36;;;;;;;32.40;26.73;;;;;;;29.90;100.00;97575.69;5013621;28;20468;-67
2023/07/01 01:54:07;;;;;;;32.10;27.47;;;;;;;30.12;99.15;97582.53;5046295;28;20048;-67
2023/07/01 01:56:37;;;;;;;30.42;26.38;;;;;;;30.34;97.50;97596.47;5030386;28;20084;-67
2023/07/01 01:59:07;;;;;;;36.35;27.60;;;;;;;30.55;96.71;97592.72;5023900;28;20648;-67
2023/07/01 02:01:38;;;;;;;31.73;25.15;;;;;;;30.79;94.59;97600.81;5029842;28;20385;-68
2023/07/01 02:04:08;;;;;;;27.85;24.85;;;;;;;30.83;94.06;97596.22;5035698;28;20554;-69
2023/07/01 02:06:38;;;;;;;28.35;25.08;;;;;;;31.03;92.87;97603.41;5020334;28;20049;-67
2023/07/01 02:09:07;;;;;;;29.00;25.70;;;;;;;31.05;92.58;97609.34;5034035;28;20048;-67
2023/07/01 02:11:38;;;;;;;27.25;24.38;;;;;;;31.24;91.28;97608.63;5038216;28;20052;-69
2023/07/01 02:14:07;;;;;;;28.35;25.25;;;;;;;31.42;90.85;97604.38;5023689;28;20072;-68
2023/07/01 02:16:36;;;;;;;28.95;24.52;;;;;;;31.55;90.17;97605.09;5029649;28;20475;-68
2023/07/01 02:19:06;;;;;;;31.70;25.13;;;;;;;31.63;89.54;97601.34;5018739;28;20082;-67
2023/07/01 02:21:35;;;;;;;28.20;24.52;;;;;;;31.60;88.87;97604.81;5037213;28;20052;-70
2023/07/01 02:24:05;;;;;;;31.77;25.15;;;;;;;31.73;88.44;97608.22;5033241;28;20057;-68
2023/07/01 02:26:36;;;;;;;26.02;23.23;;;;;;;31.77;88.92;97612.63;5025805;28;20048;-68
2023/07/01 02:29:08;;;;;;;28.58;24.90;;;;;;;31.81;89.09;97613.50;5052878;28;20057;-69
2023/07/01 02:31:38;;;;;;;28.63;24.42;;;;;;;31.82;89.18;97617.03;5057957;28;20045;-69
2023/07/01 02:34:07;;;;;;;27.55;24.60;;;;;;;31.84;89.04;97615.53;5041591;28;20041;-69
2023/07/01 02:36:40;;;;;;;27.30;23.95;;;;;;;31.92;88.75;97622.72;5038223;28;20156;-68
2023/07/01 02:39:09;;;;;;;;;;;;;;;32.00;87.71;97626.41;5039311;28;20106;-68
2023/07/01 02:41:39;;;;;;;27.92;23.85;;;;;;;32.06;87.33;97631.25;5041068;28;19979;-68
2023/07/01 02:44:08;;;;;;;24.25;21.65;;;;;;;32.07;85.23;97632.06;5041529;28;20056;-69
2023/07/01 02:46:38;;;;;;;25.33;21.50;;;;;;;32.11;85.57;97632.16;5021161;28;20049;-67
2023/07/01 02:49:08;;;;;;;27.10;21.83;;;;;;;32.07;85.33;97627.38;5038085;28;20060;-69
2023/07/01 02:51:37;;;;;;;26.23;23.25;;;;;;;32.13;84.49;97625.19;5057229;28;20049;-68
2023/07/01 02:54:07;;;;;;;26.75;21.75;;;;;;;32.23;84.32;97630.06;5034348;28;20045;-69
2023/07/01 02:56:38;;;;;;;25.58;22.17;;;;;;;32.31;83.47;97629.06;5040500;28;20048;-69
2023/07/01 02:59:07;;;;;;;24.88;21.60;;;;;;;32.37;83.32;97626.84;5023255;28;20787;-68
2023/07/01 03:01:36;;;;;;;23.95;20.42;;;;;;;32.30;83.70;97627.50;5038632;28;20041;-69
2023/07/01 03:04:07;;;;;;;23.10;20.77;;;;;;;32.14;82.91;97625.97;5034100;28;20140;-68
2023/07/01 03:06:48;;;;;;;22.70;20.33;;;;;;;32.04;83.24;97625.34;5037235;28;20129;-68
2023/07/01 03:09:17;;;;;;;25.08;21.40;;;;;;;32.05;83.99;97621.44;5039126;28;20056;-67
2023/07/01 03:11:47;;;;;;;23.05;20.58;;;;;;;31.98;84.77;97626.78;5020147;28;20075;-68
2023/07/01 03:14:16;;;;;;;23.40;20.98;;;;;;;31.88;85.96;97624.59;5009491;28;20507;-67
2023/07/01 03:16:46;;;;;;;28.40;22.27;;;;;;;31.78;86.87;97618.91;5021317;28;20053;-69
2023/07/01 03:19:16;;;;;;;26.80;23.95;;;;;;;31.78;87.26;97613.44;5015554;28;20098;-70
2023/07/01 03:21:46;;;;;;;29.63;23.75;;;;;;;31.86;86.81;97610.50;5049600;28;20463;-68
2023/07/01 03:24:16;;;;;;;26.75;23.60;;;;;;;31.68;86.79;97612.03;5048163;28;20488;-69
2023/07/01 03:26:45;;;;;;;26.40;23.55;;;;;;;31.48;87.04;97611.16;5081710;28;20049;-68
2023/07/01 03:29:16;;;;;;;26.70;23.60;;;;;;;31.51;87.71;97610.44;5027403;28;20135;-68
2023/07/01 03:31:48;;;;;;;26.85;23.77;;;;;;;31.60;87.78;97615.78;5067612;28;20110;-68
2023/07/01 03:34:22;;;;;;;26.50;23.52;;;;;;;31.59;88.03;97608.69;5048370;28;20083;-69
2023/07/01 03:36:52;;;;;;;24.63;22.02;;;;;;;31.57;87.35;97614.53;5048733;28;20060;-69
2023/07/01 03:39:21;;;;;;;25.88;22.95;;;;;;;31.68;87.06;97614.78;5065540;28;20052;-67
2023/07/01 03:41:50;;;;;;;24.92;22.17;;;;;;;31.72;86.75;97620.31;5064794;28;20140;-68
2023/07/01 03:44:19;;;;;;;23.70;21.30;;;;;;;31.75;87.31;97614.94;5065662;28;20142;-70
2023/07/01 03:46:49;;;;;;;27.10;22.60;;;;;;;31.80;87.64;97622.88;5048934;28;20076;-70
2023/07/01 03:49:18;;;;;;;23.67;21.17;;;;;;;31.90;87.42;97621.53;5061735;28;20136;-67
2023/07/01 03:51:48;;;;;;;24.42;20.52;;;;;;;31.92;86.13;97620.00;5066577;28;20118;-69
2023/07/01 03:54:17;;;;;;;20.42;18.33;;;;;;;31.97;84.46;97632.63;5065827;28;20060;-67
2023/07/01 03:56:46;;;;;;;20.33;18.13;;;;;;;32.02;84.70;97632.34;5065311;28;20072;-69
2023/07/01 03:59:15;;;;;;;19.45;17.10;;;;;;;31.99;83.80;97631.13;5046454;28;20068;-67
2023/07/01 04:01:45;;;;;;;17.98;16.08;;;;;;;31.92;84.81;97633.69;5048762;28;20053;-68
2023/07/01 04:04:14;;;;;;;19.77;17.77;;;;;;;32.02;84.57;97633.13;5067118;28;20497;-68
2023/07/01 04:06:44;;;;;;;19.25;17.25;;;;;;;32.05;84.47;97639.84;5085920;28;20135;-69
2023/07/01 04:09:14;;;;;;;19.02;17.00;;;;;;;32.07;83.89;97638.34;5068713;28;20044;-69
2023/07/01 04:11:44;;;;;;;19.00;17.00;;;;;;;32.03;84.28;97631.19;5052768;28;20488;-68
2023/07/01 04:14:15;;;;;;;20.00;17.65;;;;;;;31.91;84.49;97640.31;5069675;28;20181;-68
2023/07/01 04:16:45;;;;;;;19.13;16.98;;;;;;;31.94;83.77;97633.34;5070704;28;20048;-69
2023/07/01 04:19:17;;;;;;;21.25;18.23;;;;;;;32.02;85.55;97648.78;5071105;28;20056;-68
2023/07/01 04:21:49;;;;;;;18.73;16.38;;;;;;;31.96;86.07;97642.78;5049721;28;20060;-67
2023/07/01 04:24:20;;;;;;;20.30;17.70;;;;;;;31.97;85.18;97647.13;5042431;28;20048;-68
2023/07/01 04:26:49;;;;;;;20.48;18.35;;;;;;;32.12;84.91;97642.78;5045466;28;20071;-68
2023/07/01 04:29:19;;;;;;;19.23;17.20;;;;;;;32.28;83.99;97646.25;5041218;28;20053;-65
2023/07/01 04:31:49;;;;;;;18.60;16.63;;;;;;;32.37;83.28;97654.25;5059850;28;20048;-66
2023/07/01 04:34:18;;;;;;;20.20;16.05;;;;;;;32.48;83.00;97652.53;5042836;28;20088;-66
2023/07/01 04:36:47;;;;;;;16.70;15.05;;;;;;;32.32;81.77;97649.84;5055425;28;20053;-66
2023/07/01 04:39:19;;;;;;;16.33;14.43;;;;;;;32.50;82.49;97651.00;5054227;28;20131;-66
2023/07/01 04:41:48;;;;;;;16.13;13.98;;;;;;;32.55;82.48;97644.44;5037016;28;20037;-67
2023/07/01 04:44:18;;;;;;;16.63;14.57;;;;;;;32.64;81.79;97645.03;5051772;28;20049;-66
2023/07/01 04:46:47;;;;;;;15.18;13.68;;;;;;;32.62;81.21;97647.34;5036571;28;20380;-64
2023/07/01 04:49:17;;;;;;;16.23;13.25;;;;;;;32.38;80.80;97644.88;5056456;28;20083;-64
2023/07/01 04:51:47;;;;;;;13.88;12.57;;;;;;;32.49;79.75;97632.16;5032557;28;20114;-64
2023/07/01 04:54:16;;;;;;;15.43;12.95;;;;;;;32.34;80.30;97641.28;5033455;28;20719;-64
2023/07/01 04:56:46;;;;;;;15.35;12.48;;;;;;;32.45;80.37;97631.28;5054764;28;20448;-65
2023/07/01 04:59:15;;;;;;;14.65;13.13;;;;;;;32.61;79.89;97633.97;5066943;28;20053;-64
2023/07/01 05:01:44;;;;;;;16.30;12.52;;;;;;;32.77;80.21;97638.22;5035848;28;20068;-64
2023/07/01 05:04:15;;;;;;;14.48;13.05;;;;;;;32.89;79.61;97634.50;5033900;28;20057;-65
2023/07/01 05:06:44;;;;;;;14.38;12.82;;;;;;;32.86;80.99;97640.75;5040615;28;20129;-64
2023/07/01 05:09:14;;;;;;;14.75;12.85;;;;;;;32.69;79.42;97646.69;5050703;28;20048;-63
2023/07/01 05:11:44;;;;;;;16.33;13.50;;;;;;;32.77;79.46;97649.19;5053805;28;20144;-66
2023/07/01 05:14:14;;;;;;;14.23;12.75;;;;;;;32.72;77.91;97645.94;5053398;28;20080;-66
2023/07/01 05:16:43;;;;;;;14.48;13.07;;;;;;;32.59;78.68;97648.03;5038037;28;20052;-65
2023/07/01 05:19:13;;;;;;;18.17;13.55;;;;;;;32.88;78.04;97650.19;5054522;28;20072;-66
2023/07/01 05:21:53;;;;;;;15.40;13.85;;;;;;;32.96;76.93;97653.88;5056999;28;20060;-65
2023/07/01 05:24:23;;;;;;;14.65;13.15;;;;;;;33.02;77.30;97649.66;5064633;28;20095;-67
2023/07/01 05:26:53;;;;;;;14.45;12.95;;;;;;;33.01;76.22;97652.78;5050445;28;20067;-66
2023/07/01 05:29:24;;;;;;;15.73;12.38;;;;;;;32.93;77.28;97651.81;5067452;28;20057;-66
2023/07/01 05:31:55;;;;;;;12.73;11.43;;;;;;;33.13;76.93;97645.16;5067194;28;20068;-66
2023/07/01 05:34:25;;;;;;;13.05;11.75;;;;;;;33.18;77.86;97652.31;5049484;28;20127;-67
2023/07/01 05:36:56;;;;;;;13.18;11.88;;;;;;;33.09;75.98;97649.00;5067667;28;20051;-67
2023/07/01 05:39:25;;;;;;;16.35;12.43;;;;;;;33.06;75.02;97657.97;5049464;28;20049;-67
2023/07/01 05:41:55;;;;;;;14.98;13.38;;;;;;;33.03;75.69;97653.97;5062873;28;20064;-67
2023/07/01 05:44:25;;;;;;;13.95;12.45;;;;;;;33.06;76.37;97657.97;5067754;28;20091;-68
2023/07/01 05:46:55;;;;;;;14.43;13.02;;;;;;;32.91;75.50;97657.69;5059299;28;20436;-67
2023/07/01 05:49:25;;;;;;;16.33;13.05;;;;;;;33.06;75.45;97657.97;5066373;28;20044;-67
2023/07/01 05:51:54;;;;;;;14.38;12.93;;;;;;;33.20;76.71;97659.00;5049217;28;20131;-66
2023/07/01 05:54:24;;;;;;;13.88;12.50;;;;;;;33.34;75.93;97655.72;5066717;28;20040;-67
2023/07/01 05:56:53;;;;;;;16.55;13.85;;;;;;;33.35;76.37;97666.34;5064106;28;20206;-65
2023/07/01 05:59:24;;;;;;;14.63;13.00;;;;;;;33.40;75.87;97665.25;5063895;28;20036;-65
2023/07/01 06:01:54;;;;;;;14.55;13.05;;;;;;;32.97;74.13;97664.44;5038651;28;20051;-65
2023/07/01 06:04:24;;;;;;;14.77;13.23;;;;;;;32.78;76.14;97667.25;5064781;28;20040;-67
2023/07/01 06:06:54;;;;;;;14.02;12.55;;;;;;;32.63;77.68;97665.38;5065990;28;20059;-64
2023/07/01 06:09:24;;;;;;;14.35;12.93;;;;;;;32.56;78.78;97658.94;5048711;28;20040;-64
2023/07/01 06:11:54;;;;;;;14.55;13.07;;;;;;;32.52;79.66;97656.94;5067387;28;20041;-64
2023/07/01 06:14:24;;;;;;;13.40;12.07;;;;;;;32.59;78.76;97660.94;5062599;28;20072;-67
2023/07/01 06:16:55;;;;;;;14.48;13.02;;;;;;;32.65;79.19;97652.09;5049710;28;20063;-67
2023/07/01 06:19:24;;;;;;;15.10;13.57;;;;;;;32.72;79.09;97656.91;5031076;28;20563;-65
2023/07/01 06:21:54;;;;;;;14.30;12.98;;;;;;;32.83;78.25;97653.25;5064206;28;20133;-67
2023/07/01 06:24:24;;;;;;;15.10;13.50;;;;;;;32.90;76.75;97645.13;5063774;28;20053;-67
2023/07/01 06:26:54;;;;;;;14.82;13.18;;;;;;;33.00;76.82;97648.44;5062751;28;20051;-67
2023/07/01 06:29:23;;;;;;;14.13;12.68;;;;;;;33.08;77.46;97641.91;5064280;28;20874;-68
2023/07/01 06:31:52;;;;;;;15.18;12.50;;;;;;;33.12;76.97;97634.53;5066899;28;20060;-67
2023/07/01 06:34:23;;;;;;;16.52;14.40;;;;;;;33.13;77.20;97644.34;5039689;28;20048;-67
2023/07/01 06:36:52;;;;;;;14.27;12.90;;;;;;;33.14;76.81;97634.97;5066170;28;20479;-68
2023/07/01 06:39:22;;;;;;;14.15;12.73;;;;;;;33.11;77.04;97638.41;5064757;28;20561;-67
2023/07/01 06:41:51;;;;;;;14.15;12.57;;;;;;;33.19;76.66;97623.72;5031777;28;20045;-67
2023/07/01 06:44:21;;;;;;;14.68;12.45;;;;;;;33.24;76.93;97626.13;5047136;28;20052;-69
2023/07/01 06:46:50;;;;;;;22.02;13.82;;;;;;;33.14;76.04;97624.00;5046528;28;20044;-70
2023/07/01 06:49:20;;;;;;;16.17;13.15;;;;;;;33.08;75.21;97617.22;5061609;28;20044;-67
2023/07/01 06:51:50;;;;;;;13.88;12.38;;;;;;;32.98;73.98;97618.59;5047811;28;20071;-65
2023/07/01 06:54:19;;;;;;;13.30;12.00;;;;;;;33.02;74.26;97613.22;5047588;28;20534;-66
2023/07/01 06:56:49;;;;;;;13.90;12.48;;;;;;;32.96;75.96;97597.03;5065642;28;20083;-68
2023/07/01 06:59:18;;;;;;;14.65;13.15;;;;;;;32.97;76.01;97595.88;5066466;28;20062;-66
2023/07/01 07:01:48;;;;;;;14.55;13.02;;;;;;;32.97;76.81;97597.84;5049851;28;20066;-72
2023/07/01 07:04:18;;;;;;;14.57;12.95;;;;;;;32.91;75.95;97605.56;5062956;28;20171;-68
2023/07/01 07:06:47;;;;;;;14.13;12.63;;;;;;;32.85;77.28;97601.53;5064586;28;20040;-68
2023/07/01 07:09:17;;;;;;;14.18;12.60;;;;;;;32.83;78.53;97608.56;5045236;28;20040;-70
2023/07/01 07:11:51;;;;;;;15.43;13.52;;;;;;;32.79;79.02;97602.22;5034143;28;20052;-71
2023/07/01 07:14:22;;;;;;;14.77;13.30;;;;;;;32.74;78.67;97597.03;5061102;28;20547;-69
2023/07/01 07:16:52;;;;;;;14.18;12.70;;;;;;;32.75;79.20;97596.66;5060207;28;20049;-69
2023/07/01 07:19:22;;;;;;;16.23;14.45;;;;;;;32.67;77.84;97596.88;5048449;28;20052;-69
2023/07/01 07:21:52;;;;;;;15.02;13.45;;;;;;;32.65;77.89;97580.81;5047346;28;20063;-69
2023/07/01 07:24:22;;;;;;;15.02;13.52;;;;;;;32.71;77.50;97578.53;5064812;28;20083;-69
2023/07/01 07:27:00;;;;;;;14.95;13.32;;;;;;;32.69;76.40;97581.66;5063755;28;20498;-69
2023/07/01 07:29:31;;;;;;;15.48;13.98;;;;;;;32.71;75.83;97582.06;5063824;28;20062;-68
2023/07/01 07:32:02;;;;;;;14.35;12.60;;;;;;;32.60;75.54;97583.81;5066396;28;20040;-68
2023/07/01 07:34:32;;;;;;;15.25;12.20;;;;;;;32.60;75.71;97574.78;5047549;28;20122;-69
2023/07/01 07:37:01;;;;;;;14.90;12.45;;;;;;;32.60;75.23;97570.09;5060671;28;20080;-66
2023/07/01 07:39:31;;;;;;;13.90;12.57;;;;;;;32.67;75.55;97561.22;5026158;28;20057;-67
2023/07/01 07:42:01;;;;;;;16.00;13.20;;;;;;;32.79;74.28;97559.13;5046771;28;20040;-67
2023/07/01 07:44:31;;;;;;;13.85;12.48;;;;;;;32.88;75.43;97559.66;5045029;28;20052;-67
2023/07/01 07:47:00;;;;;;;15.07;13.60;;;;;;;32.94;76.65;97558.19;5063575;28;20051;-68
2023/07/01 07:49:30;;;;;;;14.48;13.18;;;;;;;32.98;75.89;97561.00;5063230;28;20056;-68
2023/07/01 07:52:01;;;;;;;14.52;13.10;;;;;;;33.00;76.88;97555.16;5066979;28;20187;-67
2023/07/01 07:54:31;;;;;;;15.57;14.02;;;;;;;32.91;76.84;97558.94;5065792;28;20045;-68
2023/07/01 07:57:00;;;;;;;15.75;13.70;;;;;;;32.84;75.61;97549.81;5063024;28;20052;-67
2023/07/01 07:59:29;;;;;;;14.98;13.48;;;;;;;32.72;75.73;97547.22;5049825;28;20052;-68
2023/07/01 08:02:00;;;;;;;15.93;14.43;;;;;;;32.66;76.28;97549.50;5050768;28;20131;-68
2023/07/01 08:04:29;;;;;;;16.08;14.38;;;;;;;32.54;77.07;97547.66;5049484;28;20044;-69
2023/07/01 08:06:59;;;;;;;14.85;13.35;;;;;;;32.48;78.51;97549.16;5068067;28;20044;-69
2023/07/01 08:09:30;;;;;;;15.93;14.32;;;;;;;32.41;78.19;97549.00;5070847;28;20670;-68
2023/07/01 08:12:01;;;;;;;15.18;12.07;;;;;;;32.35;78.18;97552.41;5043933;28;20048;-72
2023/07/01 08:14:30;;;;;;;13.10;11.73;;;;;;;32.24;76.79;97535.75;5051042;28;20048;-68
2023/07/01 08:17:00;;;;;;;15.20;12.35;;;;;;;32.18;76.00;97536.41;5052796;28;20040;-69
2023/07/01 08:19:30;;;;;;;15.73;12.32;;;;;;;32.16;75.76;97541.47;5051630;28;20110;-69
2023/07/01 08:22:00;;;;;;;17.92;14.52;;;;;;;32.08;76.38;97533.09;5047794;28;20060;-69
2023/07/01 08:24:31;;;;;;;15.73;11.60;;;;;;;32.03;76.25;97535.31;5058639;28;20128;-68
2023/07/01 08:27:00;;;;;;;12.82;11.57;;;;;;;31.97;75.56;97534.00;5053548;28;20072;-70
2023/07/01 08:29:30;;;;;;;16.30;11.77;;;;;;;31.91;76.28;97527.25;5051566;28;20099;-67
2023/07/01 08:31:59;;;;;;;14.55;12.80;;;;;;;31.89;74.85;97515.84;5057564;28;20064;-68
2023/07/01 08:34:29;;;;;;;13.65;12.20;;;;;;;31.85;76.03;97523.19;5039492;28;20436;-68
2023/07/01 08:36:58;;;;;;;14.82;13.20;;;;;;;31.81;76.85;97519.59;5043587;28;20562;-69
2023/07/01 08:39:31;;;;;;;15.82;13.50;;;;;;;31.74;77.05;97513.94;5052243;28;20126;-67
2023/07/01 08:42:04;;;;;;;15.30;13.15;;;;;;;31.70;78.65;97519.34;5046924;28;20147;-68
2023/07/01 08:44:34;;;;;;;15.65;14.10;;;;;;;31.67;79.18;97517.34;5049749;28;20053;-67
2023/07/01 08:47:04;;;;;;;15.23;13.73;;;;;;;31.65;78.82;97514.16;5035849;28;20127;-68
2023/07/01 08:49:36;;;;;;;15.80;14.02;;;;;;;31.61;79.23;97513.31;5043869;28;20069;-67
2023/07/01 08:52:11;;;;;;;19.55;14.65;;;;;;;31.61;80.35;97516.03;5042365;28;20127;-68
2023/07/01 08:54:41;;;;;;;17.33;14.60;;;;;;;31.65;82.15;97508.69;5026227;28;20432;-65
2023/07/01 08:57:12;;;;;;;16.73;14.60;;;;;;;31.68;82.44;97504.47;5037420;28;20037;-65
2023/07/01 08:59:47;;;;;;;16.80;15.18;;;;;;;31.71;82.02;97503.72;5027888;28;20111;-66
2023/07/01 09:02:17;;;;;;;17.08;15.38;;;;;;;31.75;81.95;97494.44;5043957;28;20046;-67
2023/07/01 09:04:46;;;;;;;17.10;15.50;;;;;;;31.77;80.66;97478.44;5050631;28;20064;-67
2023/07/01 09:07:16;;;;;;;18.63;16.58;;;;;;;31.86;81.18;97483.72;5036949;28;20045;-63
2023/07/01 09:09:46;;;;;;;18.38;16.45;;;;;;;31.92;83.48;97483.03;5030858;28;20053;-67
2023/07/01 09:12:15;;;;;;;19.38;16.55;;;;;;;31.94;82.43;97469.00;5042958;28;20132;-67
2023/07/01 09:15:06;;;;;;;21.98;16.33;;;;;;;31.96;78.07;97470.19;5052753;28;20040;-66
2023/07/01 09:17:42;;;;;;;17.05;15.23;;;;;;;32.05;78.82;97473.50;5031728;28;20077;-67
2023/07/01 09:20:13;;;;;;;19.48;15.40;;;;;;;32.12;80.15;97475.63;5041927;28;20053;-70
2023/07/01 09:22:45;;;;;;;17.30;15.55;;;;;;;32.16;79.30;97471.00;5056578;28;20044;-67
2023/07/01 09:25:29;;;;;;;18.98;15.40;;;;;;;32.18;78.80;97473.38;5042500;28;20124;-69
2023/07/01 09:27:59;;;;;;;17.25;15.40;;;;;;;32.16;78.55;97465.53;5059145;28;20044;-70
2023/07/01 09:30:29;;;;;;;16.58;15.05;;;;;;;32.23;79.65;97473.06;5046975;28;20486;-69
2023/07/01 09:33:13;;;;;;;17.40;15.27;;;;;;;32.41;79.74;97465.97;5051458;28;20048;-68
2023/07/01 09:35:46;;;;;;;16.65;15.05;;;;;;;32.47;73.43;97470.00;5047603;28;20364;-69
2023/07/01 09:38:16;;;;;;;16.25;14.55;;;;;;;32.49;73.41;97464.91;5045216;28;20114;-70
2023/07/01 09:40:46;;;;;;;17.42;15.70;;;;;;;32.45;71.69;97462.13;5025104;28;20539;-67
2023/07/01 09:43:18;;;;;;;16.10;14.57;;;;;;;32.40;71.64;97467.91;5061924;28;20395;-68
2023/07/01 09:45:56;;;;;;;16.58;15.07;;;;;;;32.40;72.16;97456.94;5043594;28;20106;-69
2023/07/01 09:48:26;;;;;;;17.02;15.30;;;;;;;32.37;72.40;97448.66;5045584;28;20044;-67
2023/07/01 09:51:01;;;;;;;16.73;15.13;;;;;;;32.38;73.77;97447.50;5042677;28;20048;-67
2023/07/01 09:53:36;;;;;;;17.95;16.08;;;;;;;32.43;76.31;97442.53;5060069;28;20053;-72
2023/07/01 09:56:07;;;;;;;17.67;15.98;;;;;;;32.43;75.14;97437.03;5039039;28;20048;-68
2023/07/01 09:58:39;;;;;;;18.80;16.88;;;;;;;32.39;75.40;97427.19;5058286;28;20056;-68
2023/07/01 10:01:12;;;;;;;19.00;16.85;;;;;;;32.36;76.60;97419.66;5043071;28;20041;-68
2023/07/01 10:03:43;;;;;;;17.88;16.05;;;;;;;32.33;76.16;97417.66;5047470;28;20522;-70
2023/07/01 10:06:14;;;;;;;17.33;15.50;;;;;;;32.31;74.60;97409.81;5062473;28;20671;-66
2023/07/01 10:08:43;;;;;;;17.38;15.63;;;;;;;32.33;74.50;97412.97;5046085;28;20528;-66
2023/07/01 10:11:24;;;;;;;17.40;15.57;;;;;;;32.31;73.99;97409.03;5054560;28;20049;-67
2023/07/01 10:13:56;;;;;;;18.48;15.40;;;;;;;32.31;74.65;97400.81;5054164;28;20527;-68
2023/07/01 10:16:26;;;;;;;19.48;16.63;;;;;;;32.29;73.81;97397.63;5034224;28;20457;-68
2023/07/01 10:18:57;;;;;;;18.55;16.65;;;;;;;32.25;75.97;97391.31;5048118;28;20048;-68
2023/07/01 10:21:30;;;;;;;19.85;16.55;;;;;;;32.27;76.47;97391.72;5058298;28;20787;-68
2023/07/01 10:24:00;;;;;;;18.25;16.42;;;;;;;32.21;77.25;97396.72;5060829;28;20072;-66
2023/07/01 10:26:47;;;;;;;18.55;16.42;;;;;;;32.17;77.09;97395.88;5032653;28;20075;-66
2023/07/01 10:29:29;;;;;;;18.40;16.30;;;;;;;32.19;77.74;97398.22;5055318;28;20479;-68
2023/07/01 10:32:14;;;;;;;17.98;16.00;;;;;;;32.24;78.07;97397.94;5061067;28;20048;-68
2023/07/01 10:34:53;;;;;;;18.70;16.70;;;;;;;32.43;77.40;97401.41;5044022;28;20063;-68
2023/07/01 10:37:26;;;;;;;20.48;18.42;;;;;;;32.58;77.67;97412.56;5065158;28;20075;-69
2023/07/01 10:40:07;;;;;;;20.17;18.13;;;;;;;32.58;76.79;97415.31;5052594;28;20040;-67
2023/07/01 10:42:37;;;;;;;18.75;16.80;;;;;;;32.52;78.20;97417.59;5028342;28;20079;-67
2023/07/01 10:45:13;;;;;;;23.98;16.27;;;;;;;32.48;77.98;97414.03;5017942;28;20052;-70
2023/07/01 10:48:03;;;;;;;18.52;16.70;;;;;;;32.50;77.74;97414.44;5039531;28;20048;-67
2023/07/01 10:51:07;;;;;;;19.38;17.40;;;;;;;32.49;78.28;97408.16;5060144;28;20419;-71
2023/07/01 10:54:02;;;;;;;18.58;16.73;;;;;;;32.47;77.99;97413.22;5029408;28;20047;-67
2023/07/01 10:56:35;;;;;;;23.60;16.65;;;;;;;32.47;77.76;97409.69;5058011;28;20110;-67
2023/07/01 10:59:29;;;;;;;19.42;17.52;;;;;;;32.40;78.82;97410.34;5044494;28;20040;-72
2023/07/01 11:02:00;;;;;;;18.52;16.60;;;;;;;32.33;78.19;97403.97;5043670;28;20048;-69
2023/07/01 11:05:08;;;;;;;20.88;17.15;;;;;;;32.33;78.68;97395.75;5045297;28;20143;-68
2023/07/01 11:07:41;;;;;;;20.67;17.17;;;;;;;32.31;77.81;97398.06;5056803;28;20067;-64
2023/07/01 11:10:11;;;;;;;18.77;16.70;;;;;;;32.31;77.93;97398.06;5055292;28;20049;-65
2023/07/01 11:12:41;;;;;;;21.27;17.88;;;;;;;32.27;77.51;97400.72;5044813;28;20056;-65
2023/07/01 11:15:17;;;;;;;19.40;17.48;;;;;;;32.17;77.91;97406.84;5053917;28;20451;-67
2023/07/01 11:17:54;;;;;;;19.73;17.70;;;;;;;32.15;78.14;97408.34;5044966;28;20413;-66
2023/07/01 11:20:24;;;;;;;19.38;17.38;;;;;;;32.12;78.17;97398.13;5051008;28;20830;-66
2023/07/01 11:22:56;;;;;;;22.10;17.67;;;;;;;32.03;79.02;97399.13;5066161;28;20056;-65
2023/07/01 11:25:26;;;;;;;24.00;18.20;;;;;;;32.00;80.10;97402.56;5081512;28;20053;-66
2023/07/01 11:27:55;;;;;;;19.27;17.45;;;;;;;31.96;79.41;97407.19;5066906;28;20058;-64
2023/07/01 11:30:31;;;;;;;21.45;17.80;;;;;;;31.94;78.92;97398.56;5066278;28;20053;-66
2023/07/01 11:33:14;;;;;;;19.20;17.35;;;;;;;31.94;80.37;97401.31;5064173;28;20048;-65
2023/07/01 11:35:55;;;;;;;19.95;17.73;;;;;;;31.87;81.08;97406.63;5067753;28;20060;-65
2023/07/01 11:38:26;;;;;;;22.80;18.17;;;;;;;31.85;80.05;97411.69;5051210;28;20874;-64